sensor_id;sensor_type;location;lat;lon;timestamp;temperature;humidity
49901;DHT22;35789;48.414;12.768;2022-11-23T00:00:00;4.0;99.9
49901;DHT22;35789;48.414;12.768;2022-11-23T00:05:00;4.0;99.9
49901;DHT22;35789;48.414;12.768;2022-11-23T00:10:00;4.0;99.9
49901;DHT22;35789;48.414;12.768;2022-11-23T00:15:00;4.0;99.9
49901;DHT22;35789;48.414;12.768;2022-11-23T00:20:00;4.0;99.9
49901;DHT22;35789;48.414;12.768;2022-11-23T00:25:00;4.0;99.9
49901;DHT22;35789;48.414;12.768;2022-11-23T00:30:00;4.0;99.9
49901;DHT22;35789;48.414;12.768;2022-11-23T00:35:00;4.0;99.9
49901;DHT22;35789;48.414;12.768;2022-11-23T00:40:00;4.0;99.9
49901;DHT22;35789;48.414;12.768;2022-11-23T00:45:00;4.0;99.9
49901;DHT22;35789;48.414;12.768;2022-11-23T00:50:00;4.0;99.9
49901;DHT22;35789;48.414;12.768;2022-11-23T00:55:00;4.0;99.9
49901;DHT22;35789;48.414;12.768;2022-11-23T01:00:00;4.0;99.9
49901;DHT22;35789;48.414;12.768;2022-11-23T01:05:00;4.0;99.9
49901;DHT22;35789;48.414;12.768;2022-11-23T01:10:00;4.0;99.9
49901;DHT22;35789;48.414;12.768;2022-11-23T01:15:00;3.9;99.9
49901;DHT22;35789;48.414;12.768;2022-11-23T01:20:00;3.8;99.9
49901;DHT22;35789;48.414;12.768;2022-11-23T01:25:00;3.8;99.9
49901;DHT22;35789;48.414;12.768;2022-11-23T01:30:00;3.7;99.9
49901;DHT22;35789;48.414;12.768;2022-11-23T01:35:00;3.6;99.9
49901;DHT22;35789;48.414;12.768;2022-11-23T01:40:00;3.6;99.9
49901;DHT22;35789;48.414;12.768;2022-11-23T01:50:00;3.6;99.9
49901;DHT22;35789;48.414;12.768;2022-11-23T01:55:00;3.5;99.9
49901;DHT22;35789;48.414;12.768;2022-11-23T02:00:00;3.5;99.9
49901;DHT22;35789;48.414;12.768;2022-11-23T02:05:00;3.4;99.9
49901;DHT22;35789;48.414;12.768;2022-11-23T02:10:00;3.5;99.9
49901;DHT22;35789;48.414;12.768;2022-11-23T02:15:00;3.5;99.9
49901;DHT22;35789;48.414;12.768;2022-11-23T02:20:02;3.5;99.9
49901;DHT22;35789;48.414;12.768;2022-11-23T02:25:00;3.5;99.9
49901;DHT22;35789;48.414;12.768;2022-11-23T02:30:00;3.5;99.9
49901;DHT22;35789;48.414;12.768;2022-11-23T02:35:00;3.6;99.9
49901;DHT22;35789;48.414;12.768;2022-11-23T02:40:00;3.6;99.9
49901;DHT22;35789;48.414;12.768;2022-11-23T02:45:03;3.5;99.9
49901;DHT22;35789;48.414;12.768;2022-11-23T02:50:00;3.4;99.9
49901;DHT22;35789;48.414;12.768;2022-11-23T02:55:00;3.5;99.9
49901;DHT22;35789;48.414;12.768;2022-11-23T03:00:00;3.5;99.9
49901;DHT22;35789;48.414;12.768;2022-11-23T03:05:00;3.5;99.9
49901;DHT22;35789;48.414;12.768;2022-11-23T03:10:00;3.5;99.9
49901;DHT22;35789;48.414;12.768;2022-11-23T03:15:00;3.5;99.9
49901;DHT22;35789;48.414;12.768;2022-11-23T03:20:00;3.5;99.9
49901;DHT22;35789;48.414;12.768;2022-11-23T03:25:00;3.5;99.9
49901;DHT22;35789;48.414;12.768;2022-11-23T03:30:00;3.5;99.9
49901;DHT22;35789;48.414;12.768;2022-11-23T03:35:00;3.6;99.9
49901;DHT22;35789;48.414;12.768;2022-11-23T03:40:00;3.6;99.9
49901;DHT22;35789;48.414;12.768;2022-11-23T03:45:00;3.6;99.9
49901;DHT22;35789;48.414;12.768;2022-11-23T03:50:00;3.6;99.9
49901;DHT22;35789;48.414;12.768;2022-11-23T03:55:00;3.6;99.9
49901;DHT22;35789;48.414;12.768;2022-11-23T04:00:00;3.6;99.9
49901;DHT22;35789;48.414;12.768;2022-11-23T04:05:00;3.6;99.9
49901;DHT22;35789;48.414;12.768;2022-11-23T04:10:00;3.6;99.9
49901;DHT22;35789;48.414;12.768;2022-11-23T04:15:00;3.6;99.9
49901;DHT22;35789;48.414;12.768;2022-11-23T04:20:00;3.6;99.9
49901;DHT22;35789;48.414;12.768;2022-11-23T04:25:00;3.5;99.9
49901;DHT22;35789;48.414;12.768;2022-11-23T04:30:00;3.6;99.9
49901;DHT22;35789;48.414;12.768;2022-11-23T04:35:00;3.5;99.9
49901;DHT22;35789;48.414;12.768;2022-11-23T04:40:00;3.5;99.9
49901;DHT22;35789;48.414;12.768;2022-11-23T04:45:00;3.4;99.9
49901;DHT22;35789;48.414;12.768;2022-11-23T04:50:00;3.4;99.9
49901;DHT22;35789;48.414;12.768;2022-11-23T04:55:00;3.4;99.9
49901;DHT22;35789;48.414;12.768;2022-11-23T05:00:00;3.5;99.9
49901;DHT22;35789;48.414;12.768;2022-11-23T05:05:00;3.6;99.9
49901;DHT22;35789;48.414;12.768;2022-11-23T05:10:00;3.7;99.9
49901;DHT22;35789;48.414;12.768;2022-11-23T05:15:00;3.6;99.9
49901;DHT22;35789;48.414;12.768;2022-11-23T05:20:00;3.7;99.9
49901;DHT22;35789;48.414;12.768;2022-11-23T05:25:00;3.7;99.9
49901;DHT22;35789;48.414;12.768;2022-11-23T05:30:00;3.7;99.9
49901;DHT22;35789;48.414;12.768;2022-11-23T05:35:00;3.6;99.9
49901;DHT22;35789;48.414;12.768;2022-11-23T05:40:00;3.6;99.9
49901;DHT22;35789;48.414;12.768;2022-11-23T05:45:00;3.6;99.9
49901;DHT22;35789;48.414;12.768;2022-11-23T05:50:00;3.6;99.9
49901;DHT22;35789;48.414;12.768;2022-11-23T05:55:00;3.7;99.9
49901;DHT22;35789;48.414;12.768;2022-11-23T06:00:00;3.7;99.9
49901;DHT22;35789;48.414;12.768;2022-11-23T06:05:00;3.7;99.9
49901;DHT22;35789;48.414;12.768;2022-11-23T06:10:00;3.6;99.9
49901;DHT22;35789;48.414;12.768;2022-11-23T06:15:00;3.6;99.9
49901;DHT22;35789;48.414;12.768;2022-11-23T06:20:00;3.6;99.9
49901;DHT22;35789;48.414;12.768;2022-11-23T06:25:00;3.6;99.9
49901;DHT22;35789;48.414;12.768;2022-11-23T06:30:00;3.6;99.9
49901;DHT22;35789;48.414;12.768;2022-11-23T06:35:00;3.7;99.9
49901;DHT22;35789;48.414;12.768;2022-11-23T06:40:00;3.8;99.9
49901;DHT22;35789;48.414;12.768;2022-11-23T06:45:00;3.7;99.9
49901;DHT22;35789;48.414;12.768;2022-11-23T06:50:00;3.8;99.9
49901;DHT22;35789;48.414;12.768;2022-11-23T06:55:00;3.8;99.9
49901;DHT22;35789;48.414;12.768;2022-11-23T07:00:00;3.8;99.9
49901;DHT22;35789;48.414;12.768;2022-11-23T07:05:00;3.8;99.9
49901;DHT22;35789;48.414;12.768;2022-11-23T07:10:00;3.8;99.9
49901;DHT22;35789;48.414;12.768;2022-11-23T07:15:00;3.8;99.9
49901;DHT22;35789;48.414;12.768;2022-11-23T07:20:00;3.8;99.9
49901;DHT22;35789;48.414;12.768;2022-11-23T07:25:00;3.9;99.9
49901;DHT22;35789;48.414;12.768;2022-11-23T07:30:00;4.0;99.9
49901;DHT22;35789;48.414;12.768;2022-11-23T07:35:00;4.1;99.9
49901;DHT22;35789;48.414;12.768;2022-11-23T07:40:00;4.0;99.9
49901;DHT22;35789;48.414;12.768;2022-11-23T07:45:00;4.2;99.9
49901;DHT22;35789;48.414;12.768;2022-11-23T07:50:00;4.3;99.9
49901;DHT22;35789;48.414;12.768;2022-11-23T07:55:00;4.5;99.9
49901;DHT22;35789;48.414;12.768;2022-11-23T08:00:00;4.5;99.9
49901;DHT22;35789;48.414;12.768;2022-11-23T08:05:00;4.5;99.9
49901;DHT22;35789;48.414;12.768;2022-11-23T08:10:00;4.6;99.9
49901;DHT22;35789;48.414;12.768;2022-11-23T08:15:00;4.6;99.9
49901;DHT22;35789;48.414;12.768;2022-11-23T08:20:00;4.7;99.9
49901;DHT22;35789;48.414;12.768;2022-11-23T08:25:00;4.7;99.9
49901;DHT22;35789;48.414;12.768;2022-11-23T08:30:00;4.7;99.9
49901;DHT22;35789;48.414;12.768;2022-11-23T08:35:00;4.6;99.9
49901;DHT22;35789;48.414;12.768;2022-11-23T08:40:00;4.6;99.9
49901;DHT22;35789;48.414;12.768;2022-11-23T08:45:00;4.5;99.9
49901;DHT22;35789;48.414;12.768;2022-11-23T08:50:00;4.5;99.9
49901;DHT22;35789;48.414;12.768;2022-11-23T08:55:00;4.5;99.9
49901;DHT22;35789;48.414;12.768;2022-11-23T09:00:00;4.7;99.9
49901;DHT22;35789;48.414;12.768;2022-11-23T09:05:00;4.8;99.9
49901;DHT22;35789;48.414;12.768;2022-11-23T09:10:00;5.0;99.9
49901;DHT22;35789;48.414;12.768;2022-11-23T09:15:00;5.0;99.9
49901;DHT22;35789;48.414;12.768;2022-11-23T09:20:00;5.0;99.9
49901;DHT22;35789;48.414;12.768;2022-11-23T09:25:00;5.0;99.9
49901;DHT22;35789;48.414;12.768;2022-11-23T09:30:00;5.1;99.9
49901;DHT22;35789;48.414;12.768;2022-11-23T09:35:00;5.2;99.9
49901;DHT22;35789;48.414;12.768;2022-11-23T09:40:00;5.2;99.9
49901;DHT22;35789;48.414;12.768;2022-11-23T09:45:04;5.3;99.9
49901;DHT22;35789;48.414;12.768;2022-11-23T09:50:02;5.3;99.9
49901;DHT22;35789;48.414;12.768;2022-11-23T09:55:02;5.2;99.9
49901;DHT22;35789;48.414;12.768;2022-11-23T10:00:01;5.3;99.9
49901;DHT22;35789;48.414;12.768;2022-11-23T10:05:00;5.3;99.9
49901;DHT22;35789;48.414;12.768;2022-11-23T10:10:02;5.3;99.9
49901;DHT22;35789;48.414;12.768;2022-11-23T10:15:02;5.3;99.9
49901;DHT22;35789;48.414;12.768;2022-11-23T10:20:03;5.3;99.9
49901;DHT22;35789;48.414;12.768;2022-11-23T10:25:00;5.3;99.9
49901;DHT22;35789;48.414;12.768;2022-11-23T10:30:00;5.3;99.9
49901;DHT22;35789;48.414;12.768;2022-11-23T10:35:02;5.3;99.9
49901;DHT22;35789;48.414;12.768;2022-11-23T10:40:00;5.4;99.9
49901;DHT22;35789;48.414;12.768;2022-11-23T10:45:00;5.5;99.9
49901;DHT22;35789;48.414;12.768;2022-11-23T10:50:00;5.7;99.9
49901;DHT22;35789;48.414;12.768;2022-11-23T10:55:00;5.8;99.9
49901;DHT22;35789;48.414;12.768;2022-11-23T11:00:01;6.0;99.9
49901;DHT22;35789;48.414;12.768;2022-11-23T11:10:00;6.2;99.9
49901;DHT22;35789;48.414;12.768;2022-11-23T11:15:01;6.1;99.9
49901;DHT22;35789;48.414;12.768;2022-11-23T11:20:00;6.1;99.9
49901;DHT22;35789;48.414;12.768;2022-11-23T11:25:00;6.1;99.9
49901;DHT22;35789;48.414;12.768;2022-11-23T11:30:03;6.0;99.9
49901;DHT22;35789;48.414;12.768;2022-11-23T11:35:01;6.0;99.9
49901;DHT22;35789;48.414;12.768;2022-11-23T11:40:02;6.0;99.9
49901;DHT22;35789;48.414;12.768;2022-11-23T11:45:00;6.0;99.9
49901;DHT22;35789;48.414;12.768;2022-11-23T11:50:00;6.0;99.9
49901;DHT22;35789;48.414;12.768;2022-11-23T11:55:01;5.9;99.9
49901;DHT22;35789;48.414;12.768;2022-11-23T12:00:00;5.9;99.9
49901;DHT22;35789;48.414;12.768;2022-11-23T12:05:02;5.9;99.9
49901;DHT22;35789;48.414;12.768;2022-11-23T12:10:04;6.0;99.9
49901;DHT22;35789;48.414;12.768;2022-11-23T12:15:00;6.0;99.9
49901;DHT22;35789;48.414;12.768;2022-11-23T12:20:02;6.1;99.9
49901;DHT22;35789;48.414;12.768;2022-11-23T12:25:10;6.2;99.9
49901;DHT22;35789;48.414;12.768;2022-11-23T12:30:02;6.4;99.9
49901;DHT22;35789;48.414;12.768;2022-11-23T12:35:08;6.4;99.9
49901;DHT22;35789;48.414;12.768;2022-11-23T12:45:05;6.5;99.9
49901;DHT22;35789;48.414;12.768;2022-11-23T12:50:01;6.5;99.9
49901;DHT22;35789;48.414;12.768;2022-11-23T12:55:01;6.5;99.9
49901;DHT22;35789;48.414;12.768;2022-11-23T13:00:01;6.6;99.9
49901;DHT22;35789;48.414;12.768;2022-11-23T13:05:07;6.6;99.9
49901;DHT22;35789;48.414;12.768;2022-11-23T13:10:03;6.5;99.9
49901;DHT22;35789;48.414;12.768;2022-11-23T13:15:03;6.5;99.9
49901;DHT22;35789;48.414;12.768;2022-11-23T13:20:06;6.5;99.9
49901;DHT22;35789;48.414;12.768;2022-11-23T13:25:13;6.5;99.9
49901;DHT22;35789;48.414;12.768;2022-11-23T13:30:06;6.5;99.9
49901;DHT22;35789;48.414;12.768;2022-11-23T13:35:00;6.5;99.9
49901;DHT22;35789;48.414;12.768;2022-11-23T13:40:01;6.6;99.9
49901;DHT22;35789;48.414;12.768;2022-11-23T13:50:06;6.7;99.9
49901;DHT22;35789;48.414;12.768;2022-11-23T13:55:02;6.7;99.9
49901;DHT22;35789;48.414;12.768;2022-11-23T14:10:01;6.5;99.9
49901;DHT22;35789;48.414;12.768;2022-11-23T14:15:02;6.4;99.9
49901;DHT22;35789;48.414;12.768;2022-11-23T14:20:04;6.2;99.9
49901;DHT22;35789;48.414;12.768;2022-11-23T14:25:09;6.1;99.9
49901;DHT22;35789;48.414;12.768;2022-11-23T14:30:04;6.0;99.9
49901;DHT22;35789;48.414;12.768;2022-11-23T14:35:07;5.9;99.9
49901;DHT22;35789;48.414;12.768;2022-11-23T14:40:02;5.8;99.9
49901;DHT22;35789;48.414;12.768;2022-11-23T14:45:01;5.7;99.9
49901;DHT22;35789;48.414;12.768;2022-11-23T14:50:00;5.6;99.9
49901;DHT22;35789;48.414;12.768;2022-11-23T14:55:01;5.5;99.9
49901;DHT22;35789;48.414;12.768;2022-11-23T15:00:00;5.5;99.9
49901;DHT22;35789;48.414;12.768;2022-11-23T15:05:02;5.4;99.9
49901;DHT22;35789;48.414;12.768;2022-11-23T15:10:01;5.3;99.9
49901;DHT22;35789;48.414;12.768;2022-11-23T15:15:00;5.3;99.9
49901;DHT22;35789;48.414;12.768;2022-11-23T15:20:00;5.2;99.9
49901;DHT22;35789;48.414;12.768;2022-11-23T15:25:03;5.2;99.9
49901;DHT22;35789;48.414;12.768;2022-11-23T15:30:00;5.1;99.9
49901;DHT22;35789;48.414;12.768;2022-11-23T15:35:00;5.0;99.9
49901;DHT22;35789;48.414;12.768;2022-11-23T15:40:00;4.9;99.9
49901;DHT22;35789;48.414;12.768;2022-11-23T15:45:00;4.9;99.9
49901;DHT22;35789;48.414;12.768;2022-11-23T15:50:01;4.8;99.9
49901;DHT22;35789;48.414;12.768;2022-11-23T15:55:01;4.7;99.9
49901;DHT22;35789;48.414;12.768;2022-11-23T16:00:00;4.7;99.9
49901;DHT22;35789;48.414;12.768;2022-11-23T16:05:03;4.6;99.9
49901;DHT22;35789;48.414;12.768;2022-11-23T16:10:10;4.5;99.9
49901;DHT22;35789;48.414;12.768;2022-11-23T16:20:00;4.3;99.9
49901;DHT22;35789;48.414;12.768;2022-11-23T16:25:03;4.3;99.9
49901;DHT22;35789;48.414;12.768;2022-11-23T16:30:00;4.3;99.9
49901;DHT22;35789;48.414;12.768;2022-11-23T16:35:07;4.3;99.9
49901;DHT22;35789;48.414;12.768;2022-11-23T16:40:00;4.2;99.9
49901;DHT22;35789;48.414;12.768;2022-11-23T16:45:00;4.2;99.9
49901;DHT22;35789;48.414;12.768;2022-11-23T16:50:00;4.1;99.9
49901;DHT22;35789;48.414;12.768;2022-11-23T16:55:00;4.1;99.9
49901;DHT22;35789;48.414;12.768;2022-11-23T17:00:00;4.0;99.9
49901;DHT22;35789;48.414;12.768;2022-11-23T17:05:00;4.0;99.9
49901;DHT22;35789;48.414;12.768;2022-11-23T17:10:00;3.9;99.9
49901;DHT22;35789;48.414;12.768;2022-11-23T17:15:00;3.9;99.9
49901;DHT22;35789;48.414;12.768;2022-11-23T17:20:00;3.9;99.9
49901;DHT22;35789;48.414;12.768;2022-11-23T17:25:00;3.8;99.9
49901;DHT22;35789;48.414;12.768;2022-11-23T17:30:00;3.8;99.9
49901;DHT22;35789;48.414;12.768;2022-11-23T17:35:00;3.6;99.9
49901;DHT22;35789;48.414;12.768;2022-11-23T17:40:00;3.6;99.9
49901;DHT22;35789;48.414;12.768;2022-11-23T17:45:00;3.6;99.9
49901;DHT22;35789;48.414;12.768;2022-11-23T17:50:00;3.6;99.9
49901;DHT22;35789;48.414;12.768;2022-11-23T17:55:00;3.6;99.9
49901;DHT22;35789;48.414;12.768;2022-11-23T18:00:00;3.6;99.9
49901;DHT22;35789;48.414;12.768;2022-11-23T18:05:00;3.7;99.9
49901;DHT22;35789;48.414;12.768;2022-11-23T18:10:00;3.7;99.9
49901;DHT22;35789;48.414;12.768;2022-11-23T18:15:00;3.8;99.9
49901;DHT22;35789;48.414;12.768;2022-11-23T18:20:00;3.8;99.9
49901;DHT22;35789;48.414;12.768;2022-11-23T18:25:00;3.9;99.9
49901;DHT22;35789;48.414;12.768;2022-11-23T18:30:00;3.8;99.9
49901;DHT22;35789;48.414;12.768;2022-11-23T18:35:00;3.6;99.9
49901;DHT22;35789;48.414;12.768;2022-11-23T18:40:00;unavailable;unavailable
49901;DHT22;35789;48.414;12.768;2022-11-23T18:45:00;3.5;99.9
49901;DHT22;35789;48.414;12.768;2022-11-23T18:50:00;3.5;99.9
49901;DHT22;35789;48.414;12.768;2022-11-23T18:55:00;3.5;99.9
49901;DHT22;35789;48.414;12.768;2022-11-23T19:00:00;unavailable;unavailable
49901;DHT22;35789;48.414;12.768;2022-11-23T19:05:00;3.5;99.9
49901;DHT22;35789;48.414;12.768;2022-11-23T19:10:00;3.5;99.9
49901;DHT22;35789;48.414;12.768;2022-11-23T19:15:00;3.5;99.9
49901;DHT22;35789;48.414;12.768;2022-11-23T19:20:00;3.4;99.9
49901;DHT22;35789;48.414;12.768;2022-11-23T19:25:00;3.3;99.9
49901;DHT22;35789;48.414;12.768;2022-11-23T19:30:00;3.4;99.9
49901;DHT22;35789;48.414;12.768;2022-11-23T19:35:00;3.3;99.9
49901;DHT22;35789;48.414;12.768;2022-11-23T19:40:00;3.3;99.9
49901;DHT22;35789;48.414;12.768;2022-11-23T19:45:00;3.3;99.9
49901;DHT22;35789;48.414;12.768;2022-11-23T19:50:00;3.4;99.9
49901;DHT22;35789;48.414;12.768;2022-11-23T19:55:00;3.4;99.9
49901;DHT22;35789;48.414;12.768;2022-11-23T20:00:00;3.4;99.9
49901;DHT22;35789;48.414;12.768;2022-11-23T20:05:00;3.5;99.9
49901;DHT22;35789;48.414;12.768;2022-11-23T20:10:00;3.6;99.9
49901;DHT22;35789;48.414;12.768;2022-11-23T20:15:00;3.6;99.9
49901;DHT22;35789;48.414;12.768;2022-11-23T20:20:00;3.5;99.9
49901;DHT22;35789;48.414;12.768;2022-11-23T20:25:00;3.4;99.9
49901;DHT22;35789;48.414;12.768;2022-11-23T20:30:00;3.5;99.9
49901;DHT22;35789;48.414;12.768;2022-11-23T20:35:00;3.4;99.9
49901;DHT22;35789;48.414;12.768;2022-11-23T20:40:00;3.4;99.9
49901;DHT22;35789;48.414;12.768;2022-11-23T20:45:00;3.3;99.9
49901;DHT22;35789;48.414;12.768;2022-11-23T20:50:00;3.2;99.9
49901;DHT22;35789;48.414;12.768;2022-11-23T20:55:00;3.4;99.9
49901;DHT22;35789;48.414;12.768;2022-11-23T21:00:00;3.4;99.9
49901;DHT22;35789;48.414;12.768;2022-11-23T21:05:00;3.1;99.9
49901;DHT22;35789;48.414;12.768;2022-11-23T21:10:00;3.3;99.9
49901;DHT22;35789;48.414;12.768;2022-11-23T21:15:00;3.4;99.9
49901;DHT22;35789;48.414;12.768;2022-11-23T21:20:00;3.4;99.9
49901;DHT22;35789;48.414;12.768;2022-11-23T21:25:00;3.4;99.9
49901;DHT22;35789;48.414;12.768;2022-11-23T21:30:00;3.3;99.9
49901;DHT22;35789;48.414;12.768;2022-11-23T21:35:00;3.4;99.9
49901;DHT22;35789;48.414;12.768;2022-11-23T21:40:00;3.5;99.9
49901;DHT22;35789;48.414;12.768;2022-11-23T21:45:00;3.5;99.9
49901;DHT22;35789;48.414;12.768;2022-11-23T21:50:00;3.5;99.9
49901;DHT22;35789;48.414;12.768;2022-11-23T21:55:00;3.5;99.9
49901;DHT22;35789;48.414;12.768;2022-11-23T22:00:00;3.4;99.9
49901;DHT22;35789;48.414;12.768;2022-11-23T22:05:00;3.4;99.9
49901;DHT22;35789;48.414;12.768;2022-11-23T22:10:00;3.3;99.9
49901;DHT22;35789;48.414;12.768;2022-11-23T22:15:00;3.3;99.9
49901;DHT22;35789;48.414;12.768;2022-11-23T22:20:00;3.2;99.9
49901;DHT22;35789;48.414;12.768;2022-11-23T22:25:00;3.3;99.9
49901;DHT22;35789;48.414;12.768;2022-11-23T22:30:00;3.3;99.9
49901;DHT22;35789;48.414;12.768;2022-11-23T22:35:00;3.3;99.9
49901;DHT22;35789;48.414;12.768;2022-11-23T22:40:00;3.3;99.9
49901;DHT22;35789;48.414;12.768;2022-11-23T22:45:00;3.2;99.9
49901;DHT22;35789;48.414;12.768;2022-11-23T22:50:00;3.3;99.9
49901;DHT22;35789;48.414;12.768;2022-11-23T22:55:00;3.3;99.9
49901;DHT22;35789;48.414;12.768;2022-11-23T23:00:00;3.2;99.9
49901;DHT22;35789;48.414;12.768;2022-11-23T23:05:00;3.2;99.9
49901;DHT22;35789;48.414;12.768;2022-11-23T23:10:00;3.2;99.9
49901;DHT22;35789;48.414;12.768;2022-11-23T23:15:00;3.2;99.9
49901;DHT22;35789;48.414;12.768;2022-11-23T23:20:00;3.3;99.9
49901;DHT22;35789;48.414;12.768;2022-11-23T23:25:00;3.3;99.9
49901;DHT22;35789;48.414;12.768;2022-11-23T23:30:00;3.3;99.9
49901;DHT22;35789;48.414;12.768;2022-11-23T23:35:00;3.3;99.9
49901;DHT22;35789;48.414;12.768;2022-11-23T23:40:00;3.3;99.9
49901;DHT22;35789;48.414;12.768;2022-11-23T23:45:00;3.3;99.9
49901;DHT22;35789;48.414;12.768;2022-11-23T23:50:00;3.4;99.9
49901;DHT22;35789;48.414;12.768;2022-11-23T23:55:00;3.4;99.9
